sensor_id;sensor_type;location;lat;lon;timestamp;temperature;humidity
17591;DHT22;8914;50.070;8.226;2022-08-19T00:01:49;23.10;99.90
17591;DHT22;8914;50.070;8.226;2022-08-19T00:04:20;23.10;99.90
17591;DHT22;8914;50.070;8.226;2022-08-19T00:06:51;23.10;99.90
17591;DHT22;8914;50.070;8.226;2022-08-19T00:09:21;23.30;99.90
17591;DHT22;8914;50.070;8.226;2022-08-19T00:11:55;23.10;99.90
17591;DHT22;8914;50.070;8.226;2022-08-19T00:14:25;23.10;99.90
17591;DHT22;8914;50.070;8.226;2022-08-19T00:16:56;23.10;99.90
17591;DHT22;8914;50.070;8.226;2022-08-19T00:19:26;23.10;99.90
17591;DHT22;8914;50.070;8.226;2022-08-19T00:21:56;23.10;99.90
17591;DHT22;8914;50.070;8.226;2022-08-19T00:24:25;23.10;99.90
17591;DHT22;8914;50.070;8.226;2022-08-19T00:26:58;23.10;99.90
17591;DHT22;8914;50.070;8.226;2022-08-19T00:29:48;23.10;99.90
17591;DHT22;8914;50.070;8.226;2022-08-19T00:32:18;23.00;99.90
17591;DHT22;8914;50.070;8.226;2022-08-19T00:34:49;23.00;99.90
17591;DHT22;8914;50.070;8.226;2022-08-19T00:37:19;23.00;99.90
17591;DHT22;8914;50.070;8.226;2022-08-19T00:39:49;23.00;99.90
17591;DHT22;8914;50.070;8.226;2022-08-19T00:42:21;23.00;99.90
17591;DHT22;8914;50.070;8.226;2022-08-19T00:44:54;23.00;99.90
17591;DHT22;8914;50.070;8.226;2022-08-19T00:47:24;22.90;99.90
17591;DHT22;8914;50.070;8.226;2022-08-19T00:49:55;22.90;99.90
17591;DHT22;8914;50.070;8.226;2022-08-19T00:52:26;22.90;99.90
17591;DHT22;8914;50.070;8.226;2022-08-19T00:54:57;22.90;99.90
17591;DHT22;8914;50.070;8.226;2022-08-19T00:57:31;22.90;99.90
17591;DHT22;8914;50.070;8.226;2022-08-19T01:00:03;22.90;99.90
17591;DHT22;8914;50.070;8.226;2022-08-19T01:02:35;22.90;99.90
17591;DHT22;8914;50.070;8.226;2022-08-19T01:05:06;22.90;99.90
17591;DHT22;8914;50.070;8.226;2022-08-19T01:07:37;22.80;99.90
17591;DHT22;8914;50.070;8.226;2022-08-19T01:10:08;22.80;99.90
17591;DHT22;8914;50.070;8.226;2022-08-19T01:12:41;22.80;99.90
17591;DHT22;8914;50.070;8.226;2022-08-19T01:15:11;22.80;99.90
17591;DHT22;8914;50.070;8.226;2022-08-19T01:17:41;22.80;99.90
17591;DHT22;8914;50.070;8.226;2022-08-19T01:20:12;22.80;99.90
17591;DHT22;8914;50.070;8.226;2022-08-19T01:22:45;22.70;99.90
17591;DHT22;8914;50.070;8.226;2022-08-19T01:25:16;22.70;99.90
17591;DHT22;8914;50.070;8.226;2022-08-19T01:27:46;22.70;99.90
17591;DHT22;8914;50.070;8.226;2022-08-19T01:30:20;22.70;99.90
17591;DHT22;8914;50.070;8.226;2022-08-19T01:32:50;22.70;99.90
17591;DHT22;8914;50.070;8.226;2022-08-19T01:35:20;22.60;99.90
17591;DHT22;8914;50.070;8.226;2022-08-19T01:37:53;22.60;99.90
17591;DHT22;8914;50.070;8.226;2022-08-19T01:40:24;22.60;99.90
17591;DHT22;8914;50.070;8.226;2022-08-19T01:42:55;22.50;99.90
17591;DHT22;8914;50.070;8.226;2022-08-19T01:45:26;22.50;99.90
17591;DHT22;8914;50.070;8.226;2022-08-19T01:47:56;22.50;99.90
17591;DHT22;8914;50.070;8.226;2022-08-19T01:50:28;22.50;99.90
17591;DHT22;8914;50.070;8.226;2022-08-19T01:53:02;22.50;99.90
17591;DHT22;8914;50.070;8.226;2022-08-19T01:55:34;22.50;99.90
17591;DHT22;8914;50.070;8.226;2022-08-19T01:58:07;22.50;99.90
17591;DHT22;8914;50.070;8.226;2022-08-19T02:00:37;22.50;99.90
17591;DHT22;8914;50.070;8.226;2022-08-19T02:03:07;22.40;99.90
17591;DHT22;8914;50.070;8.226;2022-08-19T02:05:38;22.40;99.90
17591;DHT22;8914;50.070;8.226;2022-08-19T02:08:11;22.40;99.90
17591;DHT22;8914;50.070;8.226;2022-08-19T02:10:41;22.40;99.90
17591;DHT22;8914;50.070;8.226;2022-08-19T02:13:12;22.40;99.90
17591;DHT22;8914;50.070;8.226;2022-08-19T02:15:51;22.40;99.90
17591;DHT22;8914;50.070;8.226;2022-08-19T02:18:21;22.40;99.90
17591;DHT22;8914;50.070;8.226;2022-08-19T02:20:53;22.30;99.90
17591;DHT22;8914;50.070;8.226;2022-08-19T02:23:25;22.30;99.90
17591;DHT22;8914;50.070;8.226;2022-08-19T02:25:55;22.30;99.90
17591;DHT22;8914;50.070;8.226;2022-08-19T02:28:24;22.30;99.90
17591;DHT22;8914;50.070;8.226;2022-08-19T02:30:54;22.30;99.90
17591;DHT22;8914;50.070;8.226;2022-08-19T02:33:24;22.30;99.90
17591;DHT22;8914;50.070;8.226;2022-08-19T02:35:54;22.20;99.90
17591;DHT22;8914;50.070;8.226;2022-08-19T02:38:26;22.20;99.90
17591;DHT22;8914;50.070;8.226;2022-08-19T02:40:54;22.20;99.90
17591;DHT22;8914;50.070;8.226;2022-08-19T02:43:25;22.20;99.90
17591;DHT22;8914;50.070;8.226;2022-08-19T02:45:59;22.20;99.90
17591;DHT22;8914;50.070;8.226;2022-08-19T02:48:28;22.20;99.90
17591;DHT22;8914;50.070;8.226;2022-08-19T02:50:59;22.10;99.90
17591;DHT22;8914;50.070;8.226;2022-08-19T02:53:31;22.10;99.90
17591;DHT22;8914;50.070;8.226;2022-08-19T02:56:01;22.10;99.90
17591;DHT22;8914;50.070;8.226;2022-08-19T02:58:35;22.10;99.90
17591;DHT22;8914;50.070;8.226;2022-08-19T03:01:04;22.00;99.90
17591;DHT22;8914;50.070;8.226;2022-08-19T03:03:34;22.00;99.90
17591;DHT22;8914;50.070;8.226;2022-08-19T03:06:04;22.00;99.90
17591;DHT22;8914;50.070;8.226;2022-08-19T03:08:37;21.90;99.90
17591;DHT22;8914;50.070;8.226;2022-08-19T03:11:12;21.90;99.90
17591;DHT22;8914;50.070;8.226;2022-08-19T03:13:41;21.90;99.90
17591;DHT22;8914;50.070;8.226;2022-08-19T03:16:12;21.90;99.90
17591;DHT22;8914;50.070;8.226;2022-08-19T03:18:42;21.90;99.90
17591;DHT22;8914;50.070;8.226;2022-08-19T03:21:14;21.80;99.90
17591;DHT22;8914;50.070;8.226;2022-08-19T03:23:46;21.80;99.90
17591;DHT22;8914;50.070;8.226;2022-08-19T03:26:16;21.70;99.90
17591;DHT22;8914;50.070;8.226;2022-08-19T03:28:45;21.70;99.90
17591;DHT22;8914;50.070;8.226;2022-08-19T03:31:25;21.70;99.90
17591;DHT22;8914;50.070;8.226;2022-08-19T03:34:11;21.70;99.90
17591;DHT22;8914;50.070;8.226;2022-08-19T03:36:41;21.60;99.90
17591;DHT22;8914;50.070;8.226;2022-08-19T03:39:14;21.60;99.90
17591;DHT22;8914;50.070;8.226;2022-08-19T03:41:44;21.50;99.90
17591;DHT22;8914;50.070;8.226;2022-08-19T03:44:15;21.50;99.90
17591;DHT22;8914;50.070;8.226;2022-08-19T03:46:46;21.50;99.90
17591;DHT22;8914;50.070;8.226;2022-08-19T03:49:16;21.40;99.90
17591;DHT22;8914;50.070;8.226;2022-08-19T03:51:46;21.40;99.90
17591;DHT22;8914;50.070;8.226;2022-08-19T03:54:20;21.40;99.90
17591;DHT22;8914;50.070;8.226;2022-08-19T03:56:51;21.40;99.90
17591;DHT22;8914;50.070;8.226;2022-08-19T03:59:22;21.40;99.90
17591;DHT22;8914;50.070;8.226;2022-08-19T04:01:53;21.30;99.90
17591;DHT22;8914;50.070;8.226;2022-08-19T04:04:22;21.30;99.90
17591;DHT22;8914;50.070;8.226;2022-08-19T04:06:55;21.30;99.90
17591;DHT22;8914;50.070;8.226;2022-08-19T04:09:27;21.30;99.90
17591;DHT22;8914;50.070;8.226;2022-08-19T04:11:57;21.30;99.90
17591;DHT22;8914;50.070;8.226;2022-08-19T04:14:27;21.30;99.90
17591;DHT22;8914;50.070;8.226;2022-08-19T04:16:58;21.20;99.90
17591;DHT22;8914;50.070;8.226;2022-08-19T04:19:29;21.20;99.90
17591;DHT22;8914;50.070;8.226;2022-08-19T04:21:59;21.20;99.90
17591;DHT22;8914;50.070;8.226;2022-08-19T04:24:31;21.20;99.90
17591;DHT22;8914;50.070;8.226;2022-08-19T04:27:00;21.20;99.90
17591;DHT22;8914;50.070;8.226;2022-08-19T04:29:32;21.10;99.90
17591;DHT22;8914;50.070;8.226;2022-08-19T04:32:02;21.10;99.90
17591;DHT22;8914;50.070;8.226;2022-08-19T04:34:36;21.10;99.90
17591;DHT22;8914;50.070;8.226;2022-08-19T04:37:25;21.10;99.90
17591;DHT22;8914;50.070;8.226;2022-08-19T04:40:05;21.10;99.90
17591;DHT22;8914;50.070;8.226;2022-08-19T04:42:47;21.00;99.90
17591;DHT22;8914;50.070;8.226;2022-08-19T04:45:17;21.00;99.90
17591;DHT22;8914;50.070;8.226;2022-08-19T04:47:48;21.00;99.90
17591;DHT22;8914;50.070;8.226;2022-08-19T04:50:24;21.00;99.90
17591;DHT22;8914;50.070;8.226;2022-08-19T04:52:54;21.00;99.90
17591;DHT22;8914;50.070;8.226;2022-08-19T04:55:27;21.00;99.90
17591;DHT22;8914;50.070;8.226;2022-08-19T04:58:02;21.00;99.90
17591;DHT22;8914;50.070;8.226;2022-08-19T05:00:31;21.00;99.90
17591;DHT22;8914;50.070;8.226;2022-08-19T05:03:03;21.00;99.90
17591;DHT22;8914;50.070;8.226;2022-08-19T05:05:33;21.00;99.90
17591;DHT22;8914;50.070;8.226;2022-08-19T05:08:11;21.00;99.90
17591;DHT22;8914;50.070;8.226;2022-08-19T05:10:59;21.00;99.90
17591;DHT22;8914;50.070;8.226;2022-08-19T05:13:29;21.00;99.90
17591;DHT22;8914;50.070;8.226;2022-08-19T05:15:59;21.10;99.90
17591;DHT22;8914;50.070;8.226;2022-08-19T05:18:29;21.10;99.90
17591;DHT22;8914;50.070;8.226;2022-08-19T05:21:12;21.10;99.90
17591;DHT22;8914;50.070;8.226;2022-08-19T05:23:54;21.20;99.90
17591;DHT22;8914;50.070;8.226;2022-08-19T05:26:26;21.20;99.90
17591;DHT22;8914;50.070;8.226;2022-08-19T05:28:55;21.20;99.90
17591;DHT22;8914;50.070;8.226;2022-08-19T05:31:26;21.20;99.90
17591;DHT22;8914;50.070;8.226;2022-08-19T05:33:55;21.30;99.90
17591;DHT22;8914;50.070;8.226;2022-08-19T05:36:25;21.20;99.90
17591;DHT22;8914;50.070;8.226;2022-08-19T05:38:54;21.30;99.90
17591;DHT22;8914;50.070;8.226;2022-08-19T05:41:26;21.40;99.90
17591;DHT22;8914;50.070;8.226;2022-08-19T05:43:57;21.50;99.90
17591;DHT22;8914;50.070;8.226;2022-08-19T05:46:27;21.50;99.90
17591;DHT22;8914;50.070;8.226;2022-08-19T05:48:56;21.50;99.90
17591;DHT22;8914;50.070;8.226;2022-08-19T05:51:26;21.70;99.90
17591;DHT22;8914;50.070;8.226;2022-08-19T05:53:55;21.80;99.90
17591;DHT22;8914;50.070;8.226;2022-08-19T05:56:27;21.80;99.90
17591;DHT22;8914;50.070;8.226;2022-08-19T05:58:57;21.90;99.90
17591;DHT22;8914;50.070;8.226;2022-08-19T06:01:27;22.00;99.90
17591;DHT22;8914;50.070;8.226;2022-08-19T06:03:57;22.00;99.90
17591;DHT22;8914;50.070;8.226;2022-08-19T06:06:26;22.10;99.90
17591;DHT22;8914;50.070;8.226;2022-08-19T06:08:56;22.10;99.90
17591;DHT22;8914;50.070;8.226;2022-08-19T06:11:33;22.10;99.90
17591;DHT22;8914;50.070;8.226;2022-08-19T06:14:03;22.20;99.90
17591;DHT22;8914;50.070;8.226;2022-08-19T06:16:42;22.20;99.90
17591;DHT22;8914;50.070;8.226;2022-08-19T06:19:12;22.30;99.90
17591;DHT22;8914;50.070;8.226;2022-08-19T06:21:43;22.40;99.90
17591;DHT22;8914;50.070;8.226;2022-08-19T06:24:15;22.40;99.90
17591;DHT22;8914;50.070;8.226;2022-08-19T06:26:48;22.50;99.90
17591;DHT22;8914;50.070;8.226;2022-08-19T06:29:19;22.50;99.90
17591;DHT22;8914;50.070;8.226;2022-08-19T06:31:50;22.60;99.90
17591;DHT22;8914;50.070;8.226;2022-08-19T06:34:20;22.70;99.90
17591;DHT22;8914;50.070;8.226;2022-08-19T06:36:51;22.70;99.90
17591;DHT22;8914;50.070;8.226;2022-08-19T06:39:21;22.80;99.90
17591;DHT22;8914;50.070;8.226;2022-08-19T06:41:54;22.80;99.90
17591;DHT22;8914;50.070;8.226;2022-08-19T06:44:25;22.80;99.90
17591;DHT22;8914;50.070;8.226;2022-08-19T06:46:57;22.90;99.90
17591;DHT22;8914;50.070;8.226;2022-08-19T06:49:35;22.90;99.90
17591;DHT22;8914;50.070;8.226;2022-08-19T06:52:05;23.00;99.90
17591;DHT22;8914;50.070;8.226;2022-08-19T06:54:39;23.10;99.90
17591;DHT22;8914;50.070;8.226;2022-08-19T06:57:24;23.10;99.90
17591;DHT22;8914;50.070;8.226;2022-08-19T06:59:54;23.10;99.90
17591;DHT22;8914;50.070;8.226;2022-08-19T07:02:24;23.30;99.90
17591;DHT22;8914;50.070;8.226;2022-08-19T07:04:54;23.30;99.90
17591;DHT22;8914;50.070;8.226;2022-08-19T07:07:24;23.30;99.90
17591;DHT22;8914;50.070;8.226;2022-08-19T07:09:54;23.40;99.90
17591;DHT22;8914;50.070;8.226;2022-08-19T07:12:31;23.50;99.90
17591;DHT22;8914;50.070;8.226;2022-08-19T07:15:04;23.50;99.90
17591;DHT22;8914;50.070;8.226;2022-08-19T07:17:35;23.50;99.90
17591;DHT22;8914;50.070;8.226;2022-08-19T07:20:05;23.50;99.90
17591;DHT22;8914;50.070;8.226;2022-08-19T07:22:36;23.60;99.90
17591;DHT22;8914;50.070;8.226;2022-08-19T07:25:06;23.70;99.90
17591;DHT22;8914;50.070;8.226;2022-08-19T07:27:38;23.70;99.90
17591;DHT22;8914;50.070;8.226;2022-08-19T07:30:14;23.80;99.90
17591;DHT22;8914;50.070;8.226;2022-08-19T07:32:43;23.80;99.90
17591;DHT22;8914;50.070;8.226;2022-08-19T07:35:16;23.80;99.90
17591;DHT22;8914;50.070;8.226;2022-08-19T07:37:47;23.90;99.90
17591;DHT22;8914;50.070;8.226;2022-08-19T07:40:16;24.00;99.90
17591;DHT22;8914;50.070;8.226;2022-08-19T07:42:48;24.00;99.90
17591;DHT22;8914;50.070;8.226;2022-08-19T07:45:18;24.10;99.90
17591;DHT22;8914;50.070;8.226;2022-08-19T07:47:47;24.10;99.90
17591;DHT22;8914;50.070;8.226;2022-08-19T07:50:17;24.10;99.90
17591;DHT22;8914;50.070;8.226;2022-08-19T07:52:47;24.20;99.90
17591;DHT22;8914;50.070;8.226;2022-08-19T07:55:18;24.20;99.90
17591;DHT22;8914;50.070;8.226;2022-08-19T07:58:10;24.20;99.90
17591;DHT22;8914;50.070;8.226;2022-08-19T08:00:40;24.30;99.90
17591;DHT22;8914;50.070;8.226;2022-08-19T08:03:10;24.40;99.90
17591;DHT22;8914;50.070;8.226;2022-08-19T08:05:40;24.40;99.90
17591;DHT22;8914;50.070;8.226;2022-08-19T08:08:22;24.40;99.90
17591;DHT22;8914;50.070;8.226;2022-08-19T08:11:14;24.50;99.90
17591;DHT22;8914;50.070;8.226;2022-08-19T08:13:49;24.50;99.90
17591;DHT22;8914;50.070;8.226;2022-08-19T08:16:30;24.60;99.90
17591;DHT22;8914;50.070;8.226;2022-08-19T08:19:00;24.60;99.90
17591;DHT22;8914;50.070;8.226;2022-08-19T08:21:46;24.60;99.90
17591;DHT22;8914;50.070;8.226;2022-08-19T08:24:16;24.60;99.90
17591;DHT22;8914;50.070;8.226;2022-08-19T08:26:46;24.50;99.90
17591;DHT22;8914;50.070;8.226;2022-08-19T08:29:27;24.50;99.90
17591;DHT22;8914;50.070;8.226;2022-08-19T08:32:00;24.50;99.90
17591;DHT22;8914;50.070;8.226;2022-08-19T08:34:40;24.50;99.90
17591;DHT22;8914;50.070;8.226;2022-08-19T08:37:12;24.50;99.90
17591;DHT22;8914;50.070;8.226;2022-08-19T08:39:42;24.40;99.90
17591;DHT22;8914;50.070;8.226;2022-08-19T08:42:15;24.40;99.90
17591;DHT22;8914;50.070;8.226;2022-08-19T08:44:50;24.40;99.90
17591;DHT22;8914;50.070;8.226;2022-08-19T08:47:43;24.30;99.90
17591;DHT22;8914;50.070;8.226;2022-08-19T08:50:16;24.40;99.90
17591;DHT22;8914;50.070;8.226;2022-08-19T08:52:52;24.40;99.90
17591;DHT22;8914;50.070;8.226;2022-08-19T08:55:23;24.50;99.90
17591;DHT22;8914;50.070;8.226;2022-08-19T08:58:02;24.60;99.90
17591;DHT22;8914;50.070;8.226;2022-08-19T09:00:36;24.80;99.90
17591;DHT22;8914;50.070;8.226;2022-08-19T09:03:17;24.90;99.90
17591;DHT22;8914;50.070;8.226;2022-08-19T09:05:50;25.00;99.90
17591;DHT22;8914;50.070;8.226;2022-08-19T09:08:25;25.10;99.90
17591;DHT22;8914;50.070;8.226;2022-08-19T09:10:58;25.10;99.90
17591;DHT22;8914;50.070;8.226;2022-08-19T09:13:32;25.20;99.90
17591;DHT22;8914;50.070;8.226;2022-08-19T09:16:08;25.30;99.90
17591;DHT22;8914;50.070;8.226;2022-08-19T09:18:39;25.40;99.90
17591;DHT22;8914;50.070;8.226;2022-08-19T09:21:10;25.40;99.90
17591;DHT22;8914;50.070;8.226;2022-08-19T09:23:39;25.40;99.90
17591;DHT22;8914;50.070;8.226;2022-08-19T09:26:11;25.50;99.90
17591;DHT22;8914;50.070;8.226;2022-08-19T09:28:43;25.60;99.90
17591;DHT22;8914;50.070;8.226;2022-08-19T09:31:17;25.60;99.90
17591;DHT22;8914;50.070;8.226;2022-08-19T09:33:47;25.80;99.90
17591;DHT22;8914;50.070;8.226;2022-08-19T09:36:19;25.80;99.90
17591;DHT22;8914;50.070;8.226;2022-08-19T09:39:00;25.80;99.90
17591;DHT22;8914;50.070;8.226;2022-08-19T09:41:41;26.00;99.90
17591;DHT22;8914;50.070;8.226;2022-08-19T09:44:13;26.10;99.90
17591;DHT22;8914;50.070;8.226;2022-08-19T09:46:46;26.20;99.90
17591;DHT22;8914;50.070;8.226;2022-08-19T09:49:17;26.30;99.90
17591;DHT22;8914;50.070;8.226;2022-08-19T09:51:50;26.30;99.90
17591;DHT22;8914;50.070;8.226;2022-08-19T09:54:22;26.50;99.90
17591;DHT22;8914;50.070;8.226;2022-08-19T09:56:52;26.60;99.90
17591;DHT22;8914;50.070;8.226;2022-08-19T09:59:22;26.70;99.90
17591;DHT22;8914;50.070;8.226;2022-08-19T10:01:54;26.80;99.90
17591;DHT22;8914;50.070;8.226;2022-08-19T10:04:36;26.90;99.90
17591;DHT22;8914;50.070;8.226;2022-08-19T10:07:28;26.90;99.90
17591;DHT22;8914;50.070;8.226;2022-08-19T10:10:02;27.00;99.90
17591;DHT22;8914;50.070;8.226;2022-08-19T10:12:33;27.00;99.90
17591;DHT22;8914;50.070;8.226;2022-08-19T10:15:04;27.10;99.90
17591;DHT22;8914;50.070;8.226;2022-08-19T10:17:37;27.10;99.90
17591;DHT22;8914;50.070;8.226;2022-08-19T10:20:13;27.20;99.90
17591;DHT22;8914;50.070;8.226;2022-08-19T10:22:43;27.30;99.90
17591;DHT22;8914;50.070;8.226;2022-08-19T10:25:17;27.20;99.90
17591;DHT22;8914;50.070;8.226;2022-08-19T10:27:47;27.30;99.90
17591;DHT22;8914;50.070;8.226;2022-08-19T10:30:21;27.20;99.90
17591;DHT22;8914;50.070;8.226;2022-08-19T10:32:53;27.20;99.90
17591;DHT22;8914;50.070;8.226;2022-08-19T10:35:22;27.20;99.90
17591;DHT22;8914;50.070;8.226;2022-08-19T10:37:53;27.30;99.90
17591;DHT22;8914;50.070;8.226;2022-08-19T10:40:28;27.30;99.90
17591;DHT22;8914;50.070;8.226;2022-08-19T10:42:57;27.40;99.90
17591;DHT22;8914;50.070;8.226;2022-08-19T10:45:27;27.40;99.90
17591;DHT22;8914;50.070;8.226;2022-08-19T10:47:59;27.50;99.90
17591;DHT22;8914;50.070;8.226;2022-08-19T10:50:29;27.60;99.90
17591;DHT22;8914;50.070;8.226;2022-08-19T10:53:11;27.60;99.90
17591;DHT22;8914;50.070;8.226;2022-08-19T10:55:41;27.70;99.90
17591;DHT22;8914;50.070;8.226;2022-08-19T10:58:23;27.70;99.90
17591;DHT22;8914;50.070;8.226;2022-08-19T11:00:53;27.70;99.90
17591;DHT22;8914;50.070;8.226;2022-08-19T11:03:25;27.80;99.90
17591;DHT22;8914;50.070;8.226;2022-08-19T11:05:57;27.90;99.90
17591;DHT22;8914;50.070;8.226;2022-08-19T11:08:26;28.00;99.90
17591;DHT22;8914;50.070;8.226;2022-08-19T11:10:58;28.10;99.90
17591;DHT22;8914;50.070;8.226;2022-08-19T11:13:30;28.20;99.90
17591;DHT22;8914;50.070;8.226;2022-08-19T11:16:01;28.40;99.90
17591;DHT22;8914;50.070;8.226;2022-08-19T11:18:37;28.40;99.90
17591;DHT22;8914;50.070;8.226;2022-08-19T11:21:08;28.50;99.90
17591;DHT22;8914;50.070;8.226;2022-08-19T11:23:38;28.50;99.90
17591;DHT22;8914;50.070;8.226;2022-08-19T11:26:07;28.50;99.90
17591;DHT22;8914;50.070;8.226;2022-08-19T11:28:37;28.50;99.90
17591;DHT22;8914;50.070;8.226;2022-08-19T11:31:09;28.60;99.90
17591;DHT22;8914;50.070;8.226;2022-08-19T11:33:42;28.60;99.90
17591;DHT22;8914;50.070;8.226;2022-08-19T11:36:13;28.70;99.90
17591;DHT22;8914;50.070;8.226;2022-08-19T11:38:43;28.80;99.90
17591;DHT22;8914;50.070;8.226;2022-08-19T11:41:15;29.00;99.90
17591;DHT22;8914;50.070;8.226;2022-08-19T11:43:45;29.10;99.90
17591;DHT22;8914;50.070;8.226;2022-08-19T11:46:15;29.20;99.90
17591;DHT22;8914;50.070;8.226;2022-08-19T11:48:47;29.30;99.90
17591;DHT22;8914;50.070;8.226;2022-08-19T11:51:18;29.40;99.90
17591;DHT22;8914;50.070;8.226;2022-08-19T11:53:48;29.50;99.90
17591;DHT22;8914;50.070;8.226;2022-08-19T11:56:18;29.60;99.90
17591;DHT22;8914;50.070;8.226;2022-08-19T11:58:48;29.60;99.90
17591;DHT22;8914;50.070;8.226;2022-08-19T12:01:19;29.60;99.90
17591;DHT22;8914;50.070;8.226;2022-08-19T12:03:52;29.60;99.90
17591;DHT22;8914;50.070;8.226;2022-08-19T12:06:23;29.50;99.90
17591;DHT22;8914;50.070;8.226;2022-08-19T12:08:55;29.40;99.90
17591;DHT22;8914;50.070;8.226;2022-08-19T12:11:24;29.40;99.90
17591;DHT22;8914;50.070;8.226;2022-08-19T12:13:56;29.40;99.90
17591;DHT22;8914;50.070;8.226;2022-08-19T12:16:27;29.40;99.90
17591;DHT22;8914;50.070;8.226;2022-08-19T12:19:01;29.40;99.90
17591;DHT22;8914;50.070;8.226;2022-08-19T12:21:33;29.30;99.90
17591;DHT22;8914;50.070;8.226;2022-08-19T12:24:04;29.40;99.90
17591;DHT22;8914;50.070;8.226;2022-08-19T12:26:33;29.60;99.90
17591;DHT22;8914;50.070;8.226;2022-08-19T12:29:19;29.80;99.90
17591;DHT22;8914;50.070;8.226;2022-08-19T12:31:56;30.00;99.90
17591;DHT22;8914;50.070;8.226;2022-08-19T12:34:32;30.20;99.90
17591;DHT22;8914;50.070;8.226;2022-08-19T12:37:04;30.40;99.90
17591;DHT22;8914;50.070;8.226;2022-08-19T12:39:34;30.50;99.90
17591;DHT22;8914;50.070;8.226;2022-08-19T12:42:04;30.40;99.90
17591;DHT22;8914;50.070;8.226;2022-08-19T12:44:35;30.40;99.90
17591;DHT22;8914;50.070;8.226;2022-08-19T12:47:07;30.40;99.90
17591;DHT22;8914;50.070;8.226;2022-08-19T12:49:40;30.50;99.90
17591;DHT22;8914;50.070;8.226;2022-08-19T12:52:21;30.60;99.90
17591;DHT22;8914;50.070;8.226;2022-08-19T12:54:51;30.60;99.90
17591;DHT22;8914;50.070;8.226;2022-08-19T12:57:21;30.60;99.90
17591;DHT22;8914;50.070;8.226;2022-08-19T12:59:59;30.50;99.90
17591;DHT22;8914;50.070;8.226;2022-08-19T13:02:31;30.60;99.90
17591;DHT22;8914;50.070;8.226;2022-08-19T13:05:09;30.80;99.90
17591;DHT22;8914;50.070;8.226;2022-08-19T13:07:40;31.10;99.90
17591;DHT22;8914;50.070;8.226;2022-08-19T13:10:11;31.00;99.90
17591;DHT22;8914;50.070;8.226;2022-08-19T13:12:41;30.90;99.90
17591;DHT22;8914;50.070;8.226;2022-08-19T13:15:11;30.70;99.90
17591;DHT22;8914;50.070;8.226;2022-08-19T13:17:45;30.50;99.90
17591;DHT22;8914;50.070;8.226;2022-08-19T13:20:18;30.50;99.90
17591;DHT22;8914;50.070;8.226;2022-08-19T13:22:48;30.40;99.90
17591;DHT22;8914;50.070;8.226;2022-08-19T13:25:18;30.60;99.90
17591;DHT22;8914;50.070;8.226;2022-08-19T13:27:48;30.70;99.90
17591;DHT22;8914;50.070;8.226;2022-08-19T13:30:19;30.90;99.90
17591;DHT22;8914;50.070;8.226;2022-08-19T13:33:01;30.80;99.90
17591;DHT22;8914;50.070;8.226;2022-08-19T13:35:46;30.60;99.90
17591;DHT22;8914;50.070;8.226;2022-08-19T13:38:16;30.30;99.90
17591;DHT22;8914;50.070;8.226;2022-08-19T13:40:47;30.20;99.90
17591;DHT22;8914;50.070;8.226;2022-08-19T13:43:17;30.30;99.90
17591;DHT22;8914;50.070;8.226;2022-08-19T13:45:50;30.60;99.90
17591;DHT22;8914;50.070;8.226;2022-08-19T13:48:22;30.70;99.90
17591;DHT22;8914;50.070;8.226;2022-08-19T13:50:55;31.00;99.90
17591;DHT22;8914;50.070;8.226;2022-08-19T13:53:25;31.20;99.90
17591;DHT22;8914;50.070;8.226;2022-08-19T13:55:54;31.30;99.90
17591;DHT22;8914;50.070;8.226;2022-08-19T13:58:25;31.10;99.90
17591;DHT22;8914;50.070;8.226;2022-08-19T14:00:54;30.90;99.90
17591;DHT22;8914;50.070;8.226;2022-08-19T14:03:25;30.90;99.90
17591;DHT22;8914;50.070;8.226;2022-08-19T14:05:57;31.20;99.90
17591;DHT22;8914;50.070;8.226;2022-08-19T14:08:27;31.50;99.90
17591;DHT22;8914;50.070;8.226;2022-08-19T14:10:58;31.80;99.90
17591;DHT22;8914;50.070;8.226;2022-08-19T14:13:32;32.00;99.90
17591;DHT22;8914;50.070;8.226;2022-08-19T14:16:06;32.30;99.90
17591;DHT22;8914;50.070;8.226;2022-08-19T14:18:35;32.40;99.90
17591;DHT22;8914;50.070;8.226;2022-08-19T14:21:08;32.20;99.90
17591;DHT22;8914;50.070;8.226;2022-08-19T14:23:43;32.00;99.90
17591;DHT22;8914;50.070;8.226;2022-08-19T14:26:14;31.90;99.90
17591;DHT22;8914;50.070;8.226;2022-08-19T14:28:44;32.10;99.90
17591;DHT22;8914;50.070;8.226;2022-08-19T14:31:15;32.20;99.90
17591;DHT22;8914;50.070;8.226;2022-08-19T14:33:46;32.10;99.90
17591;DHT22;8914;50.070;8.226;2022-08-19T14:36:18;32.00;99.90
17591;DHT22;8914;50.070;8.226;2022-08-19T14:38:48;32.10;99.90
17591;DHT22;8914;50.070;8.226;2022-08-19T14:41:18;32.30;99.90
17591;DHT22;8914;50.070;8.226;2022-08-19T14:43:49;32.50;99.90
17591;DHT22;8914;50.070;8.226;2022-08-19T14:46:20;32.70;99.90
17591;DHT22;8914;50.070;8.226;2022-08-19T14:48:51;32.70;99.90
17591;DHT22;8914;50.070;8.226;2022-08-19T14:51:24;32.70;99.90
17591;DHT22;8914;50.070;8.226;2022-08-19T14:53:54;32.90;99.90
17591;DHT22;8914;50.070;8.226;2022-08-19T14:56:25;33.00;99.90
17591;DHT22;8914;50.070;8.226;2022-08-19T14:58:55;32.80;99.90
17591;DHT22;8914;50.070;8.226;2022-08-19T15:01:27;32.50;99.90
17591;DHT22;8914;50.070;8.226;2022-08-19T15:03:57;32.30;99.90
17591;DHT22;8914;50.070;8.226;2022-08-19T15:06:29;32.20;99.90
17591;DHT22;8914;50.070;8.226;2022-08-19T15:08:59;32.40;99.90
17591;DHT22;8914;50.070;8.226;2022-08-19T15:11:30;32.60;99.90
17591;DHT22;8914;50.070;8.226;2022-08-19T15:14:00;32.90;99.90
17591;DHT22;8914;50.070;8.226;2022-08-19T15:16:31;33.10;99.90
17591;DHT22;8914;50.070;8.226;2022-08-19T15:19:01;33.30;99.90
17591;DHT22;8914;50.070;8.226;2022-08-19T15:21:34;33.40;99.90
17591;DHT22;8914;50.070;8.226;2022-08-19T15:24:03;33.50;99.90
17591;DHT22;8914;50.070;8.226;2022-08-19T15:26:34;33.60;99.90
17591;DHT22;8914;50.070;8.226;2022-08-19T15:29:04;33.50;99.90
17591;DHT22;8914;50.070;8.226;2022-08-19T15:31:33;33.50;99.90
17591;DHT22;8914;50.070;8.226;2022-08-19T15:34:04;33.70;99.90
17591;DHT22;8914;50.070;8.226;2022-08-19T15:36:36;33.80;99.90
17591;DHT22;8914;50.070;8.226;2022-08-19T15:39:06;34.00;99.90
17591;DHT22;8914;50.070;8.226;2022-08-19T15:41:35;34.10;99.90
17591;DHT22;8914;50.070;8.226;2022-08-19T15:44:08;34.20;99.90
17591;DHT22;8914;50.070;8.226;2022-08-19T15:46:38;34.20;99.90
17591;DHT22;8914;50.070;8.226;2022-08-19T15:49:08;34.20;99.90
17591;DHT22;8914;50.070;8.226;2022-08-19T15:51:42;34.40;99.60
17591;DHT22;8914;50.070;8.226;2022-08-19T15:54:14;34.50;99.10
17591;DHT22;8914;50.070;8.226;2022-08-19T15:56:43;34.50;99.20
17591;DHT22;8914;50.070;8.226;2022-08-19T15:59:35;34.50;99.00
17591;DHT22;8914;50.070;8.226;2022-08-19T16:02:17;34.50;99.10
17591;DHT22;8914;50.070;8.226;2022-08-19T16:05:00;34.50;98.90
17591;DHT22;8914;50.070;8.226;2022-08-19T16:07:44;34.80;98.90
17591;DHT22;8914;50.070;8.226;2022-08-19T16:10:14;35.10;98.60
17591;DHT22;8914;50.070;8.226;2022-08-19T16:12:53;35.10;97.90
17591;DHT22;8914;50.070;8.226;2022-08-19T16:15:23;35.10;97.70
17591;DHT22;8914;50.070;8.226;2022-08-19T16:17:53;35.50;98.00